Time;durP1;ratioP1;P1;durP2;ratioP2;P2;SDS_P1;SDS_P2;PMS_P1;PMS_P2;Temp;Humidity;BMP_temperature;BMP_pressure;BME280_temperature;BME280_humidity;BME280_pressure;Samples;Min_cycle;Max_cycle;Signal;HPM_P1;HPM_P2
2023/09/12 00:01:06;;;;;;;20.33;11.57;;;;;;;16.90;78.47;101021.81;5039525;28;20045;-73
2023/09/12 00:03:34;;;;;;;21.17;12.65;;;;;;;16.89;78.54;101020.97;5041985;28;20846;-73
2023/09/12 00:06:02;;;;;;;20.67;11.82;;;;;;;16.90;78.66;101021.81;5038177;28;20566;-73
2023/09/12 00:08:29;;;;;;;19.15;11.80;;;;;;;16.91;78.56;101028.84;5044766;28;20045;-73
2023/09/12 00:11:01;;;;;;;20.95;11.93;;;;;;;16.92;78.94;101015.56;5038437;28;20050;-73
2023/09/12 00:13:27;;;;;;;17.05;11.02;;;;;;;16.92;78.77;101028.75;5041063;28;20831;-74
2023/09/12 00:15:56;;;;;;;19.77;12.00;;;;;;;16.94;78.77;101018.16;5040206;28;21244;-73
2023/09/12 00:18:23;;;;;;;20.50;12.02;;;;;;;16.94;79.11;101018.16;5042263;28;20052;-73
2023/09/12 00:20:50;;;;;;;20.30;12.00;;;;;;;16.95;79.07;101018.06;5037922;28;20037;-73
2023/09/12 00:23:17;;;;;;;20.63;11.70;;;;;;;16.97;79.28;101007.47;5036070;28;20051;-73
2023/09/12 00:25:44;;;;;;;19.27;11.63;;;;;;;16.96;79.23;101013.66;5037925;28;20045;-74
2023/09/12 00:28:11;;;;;;;24.30;12.45;;;;;;;16.98;79.20;101006.53;5039540;28;20056;-74
2023/09/12 00:30:38;;;;;;;19.67;11.70;;;;;;;16.99;79.26;100995.94;5038495;28;20059;-74
2023/09/12 00:33:06;;;;;;;22.02;12.80;;;;;;;16.99;79.39;100995.03;5040967;28;20059;-75
2023/09/12 00:35:33;;;;;;;25.17;12.98;;;;;;;16.99;79.31;100993.28;5038440;28;20391;-75
2023/09/12 00:38:00;;;;;;;19.45;12.57;;;;;;;17.00;79.55;100995.00;5039099;28;20501;-75
2023/09/12 00:40:27;;;;;;;20.65;12.70;;;;;;;17.01;79.74;100988.78;5042031;28;20049;-75
2023/09/12 00:42:54;;;;;;;21.10;12.23;;;;;;;17.02;79.68;100989.66;5041081;28;20052;-75
2023/09/12 00:45:21;;;;;;;17.27;11.18;;;;;;;17.04;79.67;100995.72;5038212;28;20414;-75
2023/09/12 00:47:49;;;;;;;16.17;10.70;;;;;;;17.05;79.98;100994.81;5035386;28;20051;-75
2023/09/12 00:50:18;;;;;;;15.95;10.43;;;;;;;17.05;79.98;100992.19;5040592;28;20512;-75
2023/09/12 00:52:46;;;;;;;16.58;10.93;;;;;;;17.06;79.77;100980.69;5040682;28;20042;-75
2023/09/12 00:55:13;;;;;;;15.23;10.20;;;;;;;17.06;79.97;100975.41;5040720;28;20045;-75
2023/09/12 00:57:42;;;;;;;17.52;11.00;;;;;;;17.08;80.21;100984.13;5040289;28;20053;-75
2023/09/12 01:00:13;;;;;;;13.63;10.02;;;;;;;17.08;80.21;100986.75;5041901;28;20068;-75
2023/09/12 01:02:42;;;;;;;20.17;10.38;;;;;;;17.08;80.13;100984.97;5040166;28;20517;-76
2023/09/12 01:05:10;;;;;;;15.93;10.67;;;;;;;17.08;80.02;100994.69;5036539;28;20045;-73
2023/09/12 01:07:40;;;;;;;15.52;9.70;;;;;;;17.10;80.18;100992.81;5037638;28;20054;-72
2023/09/12 01:10:08;;;;;;;11.60;8.70;;;;;;;17.11;80.18;100996.34;5041111;28;20041;-72
2023/09/12 01:12:35;;;;;;;12.65;8.50;;;;;;;17.12;80.16;100995.41;5038544;28;20052;-73
2023/09/12 01:15:02;;;;;;;14.15;8.63;;;;;;;17.11;80.45;100993.69;5039791;28;20052;-72
2023/09/12 01:17:29;;;;;;;13.57;8.55;;;;;;;17.09;80.22;100996.38;5032206;28;20560;-72
2023/09/12 01:19:57;;;;;;;17.00;8.02;;;;;;;17.13;80.41;100997.97;5038926;28;20045;-73
2023/09/12 01:22:46;;;;;;;11.25;8.20;;;;;;;17.13;80.44;100987.41;5042693;28;20418;-73
2023/09/12 01:25:43;;;;;;;10.88;7.82;;;;;;;17.15;80.26;100985.56;5038965;28;20044;-72
2023/09/12 01:28:15;;;;;;;10.32;7.13;;;;;;;17.14;80.34;100981.22;5039248;28;20044;-73
2023/09/12 01:30:44;;;;;;;9.63;7.07;;;;;;;17.15;80.48;100975.00;5038604;28;20060;-72
2023/09/12 01:33:12;;;;;;;8.15;6.65;;;;;;;17.14;80.45;100983.84;5035531;28;20045;-72
2023/09/12 01:35:39;;;;;;;10.13;7.57;;;;;;;17.16;80.39;100971.47;5039567;28;20072;-73
2023/09/12 01:38:05;;;;;;;8.10;7.30;;;;;;;17.18;80.49;100979.31;5037810;28;21980;-72
2023/09/12 01:40:37;;;;;;;11.85;6.22;;;;;;;17.19;80.45;100973.09;5037501;28;20486;-72
2023/09/12 01:43:06;;;;;;;10.63;7.07;;;;;;;17.18;80.74;100972.22;5039379;28;20041;-77
2023/09/12 01:45:36;;;;;;;8.15;6.70;;;;;;;17.18;80.63;100976.66;5044936;28;20098;-78
2023/09/12 01:48:05;;;;;;;15.23;6.25;;;;;;;17.12;80.67;100969.88;5041808;28;20049;-77
2023/09/12 01:50:32;;;;;;;8.38;6.28;;;;;;;17.21;80.83;100980.03;5043904;28;20055;-77
2023/09/12 01:53:00;;;;;;;7.05;6.35;;;;;;;17.17;80.84;100967.88;5039393;28;20047;-76
2023/09/12 01:55:28;;;;;;;10.95;6.85;;;;;;;17.22;80.95;100971.19;5047608;28;20053;-77
2023/09/12 01:57:56;;;;;;;8.02;6.40;;;;;;;17.17;80.77;100964.41;5036184;28;20045;-76
2023/09/12 02:00:23;;;;;;;6.50;5.72;;;;;;;17.21;80.96;100969.47;5043454;28;20387;-78
2023/09/12 02:02:52;;;;;;;9.93;5.97;;;;;;;17.24;80.89;100973.75;5041962;28;20049;-77
2023/09/12 02:05:21;;;;;;;6.68;6.05;;;;;;;17.21;81.06;100972.09;5040226;28;20049;-76
2023/09/12 02:07:48;;;;;;;10.18;5.80;;;;;;;17.25;80.79;100981.63;5040916;28;20541;-77
2023/09/12 02:10:15;;;;;;;7.05;5.32;;;;;;;17.25;80.86;100976.34;5040311;28;20134;-76
2023/09/12 02:12:42;;;;;;;9.30;5.95;;;;;;;17.26;80.97;100983.31;5041617;28;20060;-76
2023/09/12 02:15:11;;;;;;;11.85;5.65;;;;;;;17.27;80.91;100979.75;5029686;28;20425;-73
2023/09/12 02:17:38;;;;;;;6.32;5.20;;;;;;;17.28;80.97;100976.22;5037740;28;20053;-72
2023/09/12 02:20:09;;;;;;;5.68;4.90;;;;;;;17.29;81.03;100982.34;5037008;28;20120;-72
2023/09/12 02:22:36;;;;;;;7.40;5.32;;;;;;;17.29;80.74;100983.19;5038510;28;20044;-72
2023/09/12 02:25:04;;;;;;;12.00;5.60;;;;;;;17.30;80.99;100982.28;5041020;28;20056;-74
2023/09/12 02:27:31;;;;;;;5.40;4.90;;;;;;;17.30;80.99;100987.56;5033410;28;20041;-72
2023/09/12 02:29:58;;;;;;;6.75;5.25;;;;;;;17.31;80.97;100981.34;5035488;28;20150;-72
2023/09/12 02:32:25;;;;;;;6.47;5.78;;;;;;;17.33;81.01;100977.78;5039370;28;20045;-73
2023/09/12 02:34:53;;;;;;;7.03;5.68;;;;;;;17.31;80.89;100984.00;5038198;28;20490;-74
2023/09/12 02:37:21;;;;;;;7.22;5.88;;;;;;;17.33;81.07;100977.78;5034271;28;20051;-72
2023/09/12 02:39:48;;;;;;;5.88;5.28;;;;;;;17.34;81.05;100979.50;5037152;28;20055;-73
2023/09/12 02:42:15;;;;;;;7.43;6.63;;;;;;;17.33;81.01;100978.63;5040977;28;20415;-72
2023/09/12 02:44:42;;;;;;;6.47;5.82;;;;;;;17.33;80.96;100977.78;5038506;28;20059;-73
2023/09/12 02:47:08;;;;;;;5.68;5.22;;;;;;;17.35;81.05;100981.22;5039077;28;20045;-72
2023/09/12 02:49:35;;;;;;;6.40;5.05;;;;;;;17.35;80.90;100978.56;5031065;28;20136;-73
2023/09/12 02:52:02;;;;;;;6.05;5.55;;;;;;;17.35;80.96;100975.94;5039632;28;20048;-72
2023/09/12 02:54:31;;;;;;;6.30;5.07;;;;;;;17.25;81.05;100957.84;5041356;28;20102;-77
2023/09/12 02:56:58;;;;;;;9.13;5.55;;;;;;;17.36;81.25;100967.09;5043207;28;20053;-77
2023/09/12 02:59:24;;;;;;;5.70;5.28;;;;;;;17.36;81.05;100964.44;5044227;28;20075;-77
2023/09/12 03:01:51;;;;;;;5.35;4.85;;;;;;;17.37;81.08;100968.81;5036859;28;20418;-78
2023/09/12 03:04:18;;;;;;;5.03;4.63;;;;;;;17.38;81.20;100975.81;5040776;28;20060;-77
2023/09/12 03:06:45;;;;;;;6.78;6.18;;;;;;;17.39;81.08;100972.22;5043103;28;20048;-78
2023/09/12 03:09:12;;;;;;;6.13;5.63;;;;;;;17.37;81.01;100968.81;5049974;28;20048;-77
2023/09/12 03:11:40;;;;;;;5.30;4.85;;;;;;;17.30;80.96;100955.88;5047094;28;20131;-76
2023/09/12 03:14:07;;;;;;;5.88;5.28;;;;;;;17.36;81.18;100961.81;5045405;28;20057;-77
2023/09/12 03:16:36;;;;;;;13.43;5.90;;;;;;;17.35;81.28;100965.38;5046142;28;20045;-77
2023/09/12 03:19:03;;;;;;;5.90;5.40;;;;;;;17.28;81.18;100944.53;5048975;28;20064;-77
2023/09/12 03:21:31;;;;;;;7.78;5.10;;;;;;;17.22;81.03;100933.38;5046126;28;20045;-77
2023/09/12 03:23:58;;;;;;;5.00;4.53;;;;;;;17.39;81.23;100969.59;5045133;28;20056;-77
2023/09/12 03:26:25;;;;;;;7.03;5.32;;;;;;;17.33;81.26;100949.59;5041706;28;20062;-77
2023/09/12 03:28:53;;;;;;;8.02;6.00;;;;;;;17.28;81.34;100955.09;5048483;28;20227;-77
2023/09/12 03:31:20;;;;;;;6.32;5.28;;;;;;;17.38;81.08;100959.97;5044471;28;20045;-78
2023/09/12 03:33:49;;;;;;;4.85;4.45;;;;;;;17.39;81.23;100959.03;5040416;28;20419;-77
2023/09/12 03:36:17;;;;;;;7.85;4.57;;;;;;;17.41;81.08;100954.53;5043192;28;20061;-77
2023/09/12 03:38:44;;;;;;;5.03;4.53;;;;;;;17.34;81.20;100940.75;5041554;28;20059;-76
2023/09/12 03:41:11;;;;;;;7.75;4.45;;;;;;;17.39;81.12;100954.63;5047393;28;20561;-77
2023/09/12 03:43:38;;;;;;;5.40;4.90;;;;;;;17.40;81.46;100958.13;5047262;28;20061;-77
2023/09/12 03:46:06;;;;;;;4.57;4.28;;;;;;;17.42;81.27;100965.06;5042317;28;20060;-77
2023/09/12 03:48:36;;;;;;;4.53;4.13;;;;;;;17.44;81.25;100964.97;5040306;28;20050;-77
2023/09/12 03:51:03;;;;;;;4.88;4.40;;;;;;;17.45;81.06;100961.41;5042585;28;20498;-77
2023/09/12 03:53:30;;;;;;;4.07;3.78;;;;;;;17.38;81.16;100958.16;5046388;28;20076;-78
2023/09/12 03:55:59;;;;;;;4.53;4.13;;;;;;;17.36;81.10;100953.88;5041518;28;20049;-78
2023/09/12 03:58:25;;;;;;;4.28;3.97;;;;;;;17.33;81.22;100938.16;5046530;28;20047;-76
2023/09/12 04:00:52;;;;;;;5.15;4.22;;;;;;;17.46;81.19;100957.84;5048600;28;20049;-77
2023/09/12 04:03:21;;;;;;;5.38;4.25;;;;;;;17.41;81.25;100949.25;5041045;28;20502;-73
2023/09/12 04:05:47;;;;;;;5.90;4.57;;;;;;;17.46;81.01;100960.47;5042843;28;20433;-73
2023/09/12 04:08:14;;;;;;;4.47;4.07;;;;;;;17.47;81.03;100962.19;5003797;28;20048;-73
2023/09/12 04:10:41;;;;;;;5.10;4.05;;;;;;;17.47;80.95;100956.91;5039337;28;20493;-73
2023/09/12 04:13:08;;;;;;;5.45;4.18;;;;;;;17.46;81.09;100956.06;5038936;28;20045;-73
2023/09/12 04:15:35;;;;;;;5.47;3.95;;;;;;;17.46;81.22;100953.41;5037696;28;20060;-73
2023/09/12 04:18:02;;;;;;;4.63;4.25;;;;;;;17.47;81.29;100959.53;5034428;28;20045;-73
2023/09/12 04:20:30;;;;;;;5.47;3.72;;;;;;;17.48;81.11;100958.66;5038719;28;20049;-72
2023/09/12 04:22:57;;;;;;;4.15;3.85;;;;;;;17.49;81.24;100960.34;5037626;28;20048;-72
2023/09/12 04:25:24;;;;;;;4.93;4.53;;;;;;;17.49;81.11;100957.69;5038696;28;20050;-72
2023/09/12 04:27:51;;;;;;;3.92;3.58;;;;;;;17.49;81.25;100952.41;5037463;28;20055;-72
2023/09/12 04:30:18;;;;;;;10.30;4.65;;;;;;;17.49;81.29;100948.00;5039185;28;20050;-73
2023/09/12 04:32:45;;;;;;;5.75;4.00;;;;;;;17.50;81.25;100955.00;5039458;28;20049;-72
2023/09/12 04:35:12;;;;;;;6.68;4.10;;;;;;;17.50;81.48;100954.13;5038685;28;20046;-71
2023/09/12 04:37:40;;;;;;;14.50;3.97;;;;;;;17.49;81.40;100952.41;5042085;28;20080;-72
2023/09/12 04:40:09;;;;;;;4.93;4.45;;;;;;;17.49;81.36;100939.22;5040262;28;20045;-71
2023/09/12 04:42:36;;;;;;;4.03;3.65;;;;;;;17.49;81.30;100947.13;5040722;28;20048;-71
2023/09/12 04:45:03;;;;;;;4.07;3.75;;;;;;;17.49;80.93;100942.72;5032810;28;20055;-71
2023/09/12 04:47:30;;;;;;;12.73;4.68;;;;;;;17.49;81.27;100945.34;5036303;28;20076;-71
2023/09/12 04:49:57;;;;;;;5.13;4.57;;;;;;;17.50;81.36;100947.09;5040926;28;20049;-71
2023/09/12 04:52:23;;;;;;;3.67;3.38;;;;;;;17.50;81.32;100944.44;5040236;28;20067;-71
2023/09/12 04:54:52;;;;;;;4.22;3.92;;;;;;;17.49;81.31;100937.44;5038506;28;20662;-72
2023/09/12 04:57:19;;;;;;;3.50;3.30;;;;;;;17.51;81.27;100940.00;5038959;28;20417;-72
2023/09/12 04:59:45;;;;;;;3.78;3.50;;;;;;;17.51;81.28;100937.38;5041015;28;20421;-72
2023/09/12 05:02:12;;;;;;;3.20;3.00;;;;;;;17.51;81.40;100930.31;5036919;28;20589;-73
2023/09/12 05:04:39;;;;;;;3.50;3.28;;;;;;;17.49;81.16;100924.22;5040141;28;20049;-72
2023/09/12 05:07:06;;;;;;;3.45;3.17;;;;;;;17.52;81.35;100941.72;5039558;28;20073;-72
2023/09/12 05:09:33;;;;;;;3.80;3.47;;;;;;;17.52;81.33;100949.63;5039419;28;20056;-72
2023/09/12 05:12:01;;;;;;;7.35;4.10;;;;;;;17.53;81.44;100939.03;5038855;28;20045;-73
2023/09/12 05:14:28;;;;;;;4.20;3.90;;;;;;;17.54;81.12;100939.88;5041638;28;20548;-77
2023/09/12 05:16:56;;;;;;;3.75;3.47;;;;;;;17.50;81.37;100943.56;5042421;28;20733;-77
2023/09/12 05:19:24;;;;;;;3.67;3.38;;;;;;;17.51;81.21;100935.59;5044657;28;20124;-77
2023/09/12 05:21:50;;;;;;;2.80;2.60;;;;;;;17.53;81.18;100946.94;5040268;28;20499;-77
2023/09/12 05:24:17;;;;;;;3.35;3.15;;;;;;;17.51;81.18;100929.44;5042122;28;20048;-77
2023/09/12 05:26:44;;;;;;;3.55;2.80;;;;;;;17.56;81.17;100942.44;5044728;28;20482;-77
2023/09/12 05:29:12;;;;;;;3.33;3.13;;;;;;;17.56;81.50;100937.16;5045605;28;20053;-76
2023/09/12 05:31:39;;;;;;;3.30;3.03;;;;;;;17.56;81.17;100932.75;5040014;28;20056;-76
2023/09/12 05:34:06;;;;;;;2.90;2.63;;;;;;;17.56;81.40;100943.31;5040943;28;20048;-76
2023/09/12 05:36:33;;;;;;;4.00;2.65;;;;;;;17.57;81.20;100945.00;5040346;28;20056;-77
2023/09/12 05:39:00;;;;;;;3.78;3.35;;;;;;;17.56;81.39;100938.03;5041913;28;20053;-76
2023/09/12 05:41:27;;;;;;;3.75;3.47;;;;;;;17.45;81.41;100924.44;5042210;28;20073;-77
2023/09/12 05:43:54;;;;;;;3.75;3.45;;;;;;;17.58;81.30;100946.72;5039708;28;20606;-73
2023/09/12 05:46:22;;;;;;;3.50;3.20;;;;;;;17.57;81.38;100942.38;5038868;28;20548;-73
2023/09/12 05:48:49;;;;;;;3.65;3.35;;;;;;;17.58;81.40;100943.22;5039360;28;20053;-73
2023/09/12 05:51:16;;;;;;;3.10;2.88;;;;;;;17.59;81.40;100944.94;5037342;28;20048;-74
2023/09/12 05:53:42;;;;;;;4.40;4.00;;;;;;;17.59;81.30;100948.47;5037946;28;20060;-73
2023/09/12 05:56:10;;;;;;;9.82;3.83;;;;;;;17.60;81.34;100939.59;5039306;28;20048;-73
2023/09/12 05:58:41;;;;;;;5.40;3.25;;;;;;;17.59;81.40;100937.88;5036611;28;20049;-73
2023/09/12 06:01:08;;;;;;;4.20;3.90;;;;;;;17.61;81.35;100938.66;5039485;28;20071;-73
2023/09/12 06:03:36;;;;;;;3.45;3.15;;;;;;;17.61;81.32;100941.31;5033724;28;20056;-73
2023/09/12 06:06:03;;;;;;;4.60;3.80;;;;;;;17.62;81.36;100936.91;5042243;28;20501;-73
2023/09/12 06:08:30;;;;;;;6.97;3.88;;;;;;;17.62;81.29;100929.81;5035908;28;20053;-73
2023/09/12 06:10:57;;;;;;;4.03;3.67;;;;;;;17.64;81.49;100938.50;5038990;28;20410;-73
2023/09/12 06:13:24;;;;;;;3.78;3.47;;;;;;;17.64;81.44;100941.16;5040179;28;20045;-73
2023/09/12 06:15:51;;;;;;;4.43;4.07;;;;;;;17.65;81.48;100940.25;5039797;28;20045;-73
2023/09/12 06:18:19;;;;;;;3.85;3.55;;;;;;;17.66;81.49;100941.09;5039417;28;20048;-73
2023/09/12 06:20:48;;;;;;;7.80;4.50;;;;;;;17.68;81.56;100947.19;5038990;28;20048;-73
2023/09/12 06:23:14;;;;;;;4.78;3.90;;;;;;;17.68;81.48;100942.75;5039637;28;20045;-75
2023/09/12 06:25:41;;;;;;;5.15;4.60;;;;;;;17.72;81.59;100948.75;5040109;28;20060;-74
2023/09/12 06:28:11;;;;;;;4.28;3.92;;;;;;;17.71;81.54;100937.31;5039282;28;20048;-76
2023/09/12 06:30:37;;;;;;;4.70;4.30;;;;;;;17.73;81.49;100937.25;5039068;28;20727;-75
2023/09/12 06:33:05;;;;;;;8.70;3.60;;;;;;;17.73;81.51;100932.84;5039466;28;20048;-75
2023/09/12 06:35:33;;;;;;;3.75;3.45;;;;;;;17.73;81.34;100924.91;5040078;28;20051;-74
2023/09/12 06:38:01;;;;;;;5.60;5.20;;;;;;;17.73;81.34;100935.47;5038746;28;20056;-74
2023/09/12 06:40:28;;;;;;;3.63;3.30;;;;;;;17.75;81.27;100928.31;5042049;28;20056;-75
2023/09/12 06:42:55;;;;;;;3.65;3.30;;;;;;;17.77;81.33;100926.47;5041901;28;20041;-75
2023/09/12 06:45:22;;;;;;;4.10;3.80;;;;;;;17.79;81.43;100923.81;5037794;28;20049;-75
2023/09/12 06:47:48;;;;;;;3.47;3.25;;;;;;;17.77;81.55;100917.69;5042131;28;20041;-75
2023/09/12 06:50:15;;;;;;;3.58;3.33;;;;;;;17.82;81.32;100922.81;5035277;28;20041;-75
2023/09/12 06:52:42;;;;;;;4.18;3.78;;;;;;;17.82;81.35;100921.03;5034870;28;20057;-74
2023/09/12 06:55:11;;;;;;;3.78;3.47;;;;;;;17.83;81.29;100922.72;5037830;28;20045;-73
2023/09/12 06:57:38;;;;;;;4.38;3.65;;;;;;;17.84;81.59;100929.72;5039360;28;20056;-73
2023/09/12 07:00:07;;;;;;;4.25;3.85;;;;;;;17.87;81.44;100920.78;5038008;28;20129;-73
2023/09/12 07:02:34;;;;;;;5.03;3.67;;;;;;;17.88;81.46;100928.66;5039813;28;20073;-73
2023/09/12 07:05:01;;;;;;;5.80;4.13;;;;;;;17.90;81.48;100928.56;5038409;28;20707;-73
2023/09/12 07:07:28;;;;;;;4.10;3.78;;;;;;;17.92;81.48;100930.22;5038548;28;20533;-73
2023/09/12 07:09:54;;;;;;;4.40;2.97;;;;;;;17.94;81.48;100927.50;5035212;28;20041;-73
2023/09/12 07:12:23;;;;;;;4.22;3.92;;;;;;;17.96;81.55;100929.16;5037493;28;20537;-73
2023/09/12 07:14:51;;;;;;;4.97;3.63;;;;;;;17.98;81.49;100929.06;5038512;28;20049;-73
2023/09/12 07:17:18;;;;;;;4.05;3.80;;;;;;;17.99;81.56;100920.22;5036680;28;20045;-73
2023/09/12 07:19:45;;;;;;;6.55;4.40;;;;;;;18.01;81.66;100918.34;5041094;28;20060;-73
2023/09/12 07:22:12;;;;;;;4.55;4.25;;;;;;;18.03;81.54;100915.66;5039996;28;20064;-73
2023/09/12 07:24:39;;;;;;;4.40;3.80;;;;;;;18.05;81.65;100914.66;5036155;28;20049;-72
2023/09/12 07:27:06;;;;;;;6.00;4.07;;;;;;;18.08;81.69;100911.84;5039725;28;20418;-73
2023/09/12 07:29:34;;;;;;;3.67;3.47;;;;;;;18.08;81.77;100903.94;5036837;28;20056;-73
2023/09/12 07:32:01;;;;;;;7.65;4.20;;;;;;;18.12;81.59;100913.41;5039168;28;20041;-73
2023/09/12 07:34:28;;;;;;;6.65;4.78;;;;;;;18.14;81.56;100919.50;5043712;28;20060;-78
2023/09/12 07:36:55;;;;;;;5.45;3.95;;;;;;;18.16;81.67;100922.09;5040627;28;20048;-77
2023/09/12 07:39:22;;;;;;;5.05;4.43;;;;;;;18.17;81.31;100915.84;5043164;28;20076;-76
2023/09/12 07:41:49;;;;;;;5.50;4.45;;;;;;;18.17;81.36;100913.22;5038653;28;20530;-77
2023/09/12 07:44:16;;;;;;;5.15;4.35;;;;;;;18.22;81.45;100911.22;5038882;28;20110;-77
2023/09/12 07:46:45;;;;;;;5.50;5.10;;;;;;;18.24;81.48;100909.31;5048529;28;20049;-76
2023/09/12 07:49:12;;;;;;;4.97;4.50;;;;;;;18.21;81.22;100896.25;5044033;28;20069;-77
2023/09/12 07:51:39;;;;;;;4.68;4.32;;;;;;;18.31;81.54;100915.19;5044741;28;20049;-76
2023/09/12 07:54:06;;;;;;;5.00;4.53;;;;;;;18.33;81.25;100906.25;5046829;28;20044;-78
2023/09/12 07:56:33;;;;;;;5.78;5.22;;;;;;;18.34;81.19;100905.31;5046386;28;20045;-76
2023/09/12 07:58:59;;;;;;;4.65;4.22;;;;;;;18.40;81.24;100906.81;5047086;28;20052;-77
2023/09/12 08:01:27;;;;;;;5.10;4.70;;;;;;;18.37;81.40;100906.97;5037969;28;20053;-77
2023/09/12 08:03:55;;;;;;;4.57;4.20;;;;;;;18.45;80.95;100909.25;5042964;28;20053;-74
2023/09/12 08:06:23;;;;;;;6.82;5.43;;;;;;;18.40;80.67;100901.50;5039309;28;20045;-75
2023/09/12 08:08:50;;;;;;;5.90;5.40;;;;;;;18.47;80.79;100905.59;5041827;28;20045;-76
2023/09/12 08:11:18;;;;;;;7.35;4.75;;;;;;;18.48;80.51;100907.28;5039310;28;20623;-75
2023/09/12 08:13:47;;;;;;;4.60;4.30;;;;;;;18.48;80.73;100902.00;5040969;28;20077;-75
2023/09/12 08:16:14;;;;;;;6.35;5.70;;;;;;;18.54;80.45;100906.13;5041863;28;20045;-76
2023/09/12 08:18:40;;;;;;;4.72;4.43;;;;;;;18.56;80.46;100910.41;5038744;28;20049;-75
2023/09/12 08:21:09;;;;;;;5.43;4.93;;;;;;;18.60;80.44;100905.81;5037629;28;20044;-75
2023/09/12 08:23:36;;;;;;;5.55;5.00;;;;;;;18.63;80.37;100910.97;5040661;28;20044;-76
2023/09/12 08:26:03;;;;;;;5.03;4.63;;;;;;;18.66;80.10;100916.94;5041105;28;20139;-76
2023/09/12 08:28:30;;;;;;;5.25;4.80;;;;;;;18.69;79.99;100910.66;5038176;28;20052;-75
2023/09/12 08:30:56;;;;;;;6.25;5.75;;;;;;;18.74;80.00;100915.75;5040830;28;20870;-76
2023/09/12 08:33:23;;;;;;;7.32;6.18;;;;;;;18.74;79.67;100908.66;5038995;28;20059;-75
2023/09/12 08:35:51;;;;;;;7.40;6.10;;;;;;;18.76;79.73;100911.25;5042328;28;20063;-76
2023/09/12 08:38:19;;;;;;;6.95;6.30;;;;;;;18.77;79.84;100913.81;5039559;28;20052;-77
2023/09/12 08:40:50;;;;;;;6.80;6.20;;;;;;;18.76;79.88;100900.66;5039275;28;20045;-76
2023/09/12 08:43:17;;;;;;;7.63;6.82;;;;;;;18.80;79.65;100907.50;5042116;28;20103;-73
2023/09/12 08:45:44;;;;;;;8.20;7.38;;;;;;;18.83;79.79;100907.34;5042410;28;20037;-71
2023/09/12 08:48:12;;;;;;;6.80;6.20;;;;;;;18.84;79.42;100909.91;5040465;28;20045;-72
2023/09/12 08:50:39;;;;;;;7.95;6.80;;;;;;;18.85;79.63;100911.63;5037822;28;20053;-72
2023/09/12 08:53:06;;;;;;;8.20;7.43;;;;;;;18.88;79.64;100910.63;5041282;28;20486;-72
2023/09/12 08:55:35;;;;;;;7.03;6.13;;;;;;;18.89;79.60;100901.72;5039767;28;20068;-72
2023/09/12 08:58:04;;;;;;;10.18;8.60;;;;;;;18.91;79.53;100905.16;5034622;28;20103;-72
2023/09/12 09:00:31;;;;;;;10.48;8.43;;;;;;;18.93;79.53;100900.66;5037679;28;20069;-72
2023/09/12 09:03:00;;;;;;;9.90;8.45;;;;;;;18.93;79.47;100903.31;5037213;28;20521;-72
2023/09/12 09:05:28;;;;;;;11.23;9.05;;;;;;;18.95;79.47;100905.84;5038221;28;20078;-71
2023/09/12 09:07:56;;;;;;;10.68;9.32;;;;;;;18.95;79.37;100909.34;5034422;28;20545;-72
2023/09/12 09:10:24;;;;;;;14.07;10.27;;;;;;;18.97;79.45;100904.84;5036860;28;20485;-71
2023/09/12 09:12:52;;;;;;;11.98;9.18;;;;;;;19.00;79.62;100919.72;5037732;28;20494;-74
2023/09/12 09:15:27;;;;;;;13.77;10.88;;;;;;;19.01;79.49;100919.66;5041860;28;20055;-74
2023/09/12 09:17:55;;;;;;;16.37;11.27;;;;;;;19.04;79.59;100911.56;5034456;28;20076;-74
2023/09/12 09:20:30;;;;;;;17.83;12.57;;;;;;;19.05;79.44;100907.09;5040739;28;20407;-74
2023/09/12 09:22:57;;;;;;;14.45;10.57;;;;;;;19.06;79.72;100908.81;5038754;28;20586;-74
2023/09/12 09:25:24;;;;;;;20.55;12.32;;;;;;;19.07;79.81;100908.75;5037701;28;20048;-74
2023/09/12 09:27:53;;;;;;;19.13;12.98;;;;;;;19.08;79.57;100904.28;5039665;28;20690;-74
2023/09/12 09:30:28;;;;;;;19.55;15.00;;;;;;;19.10;79.53;100913.03;5039109;28;20045;-74
2023/09/12 09:32:55;;;;;;;17.27;13.18;;;;;;;19.12;79.75;100920.88;5041175;28;20052;-74
2023/09/12 09:35:22;;;;;;;22.75;15.50;;;;;;;19.14;79.68;100919.00;5037100;28;20606;-73
2023/09/12 09:37:49;;;;;;;23.40;15.20;;;;;;;19.15;79.45;100908.31;5039529;28;20048;-75
2023/09/12 09:40:16;;;;;;;19.63;14.35;;;;;;;19.18;79.61;100907.31;5038317;28;20063;-74
2023/09/12 09:42:43;;;;;;;19.77;14.25;;;;;;;19.19;79.53;100903.75;5038568;28;20050;-74
2023/09/12 09:45:12;;;;;;;22.50;15.45;;;;;;;19.20;79.45;100905.44;5035812;28;20532;-74
2023/09/12 09:47:39;;;;;;;22.27;16.15;;;;;;;19.23;79.43;100913.22;5033439;28;20051;-73
2023/09/12 09:50:06;;;;;;;27.35;16.95;;;;;;;19.24;79.49;100901.69;5040241;28;20041;-76
2023/09/12 09:52:33;;;;;;;21.15;16.10;;;;;;;19.25;79.39;100906.06;5036862;28;20049;-74
2023/09/12 09:55:00;;;;;;;25.02;16.52;;;;;;;19.26;79.35;100905.97;5037352;28;20049;-73
2023/09/12 09:57:27;;;;;;;29.20;18.35;;;;;;;19.29;79.40;100904.94;5032155;28;20076;-73
2023/09/12 09:59:55;;;;;;;23.50;16.77;;;;;;;19.28;79.34;100888.22;5033813;28;20582;-74
2023/09/12 10:02:28;;;;;;;25.05;17.40;;;;;;;19.32;79.33;100896.84;5039323;28;20063;-74
2023/09/12 10:04:55;;;;;;;22.23;15.90;;;;;;;19.32;79.23;100886.25;5037291;28;20046;-74
2023/09/12 10:07:23;;;;;;;23.60;16.95;;;;;;;19.34;79.41;100887.03;5035632;28;20049;-75
2023/09/12 10:09:50;;;;;;;23.55;16.30;;;;;;;19.35;79.35;100878.13;5035471;28;20056;-73
2023/09/12 10:12:17;;;;;;;25.63;16.83;;;;;;;19.36;79.07;100874.56;5039526;28;20048;-73
2023/09/12 10:14:46;;;;;;;24.30;16.80;;;;;;;19.36;79.30;100873.72;5034678;28;20048;-74
2023/09/12 10:17:16;;;;;;;24.45;16.38;;;;;;;19.36;79.11;100866.63;5037760;28;20052;-73
2023/09/12 10:19:52;;;;;;;24.40;16.40;;;;;;;19.38;79.08;100862.09;5038143;28;20041;-74
2023/09/12 10:22:23;;;;;;;22.25;15.75;;;;;;;19.39;78.91;100877.06;5035674;28;20049;-73
2023/09/12 10:24:51;;;;;;;21.55;16.40;;;;;;;19.40;78.79;100883.19;5036587;28;20869;-74
2023/09/12 10:27:20;;;;;;;24.02;15.35;;;;;;;19.42;78.85;100868.94;5037071;28;20042;-74
2023/09/12 10:29:49;;;;;;;20.20;14.40;;;;;;;19.43;78.65;100878.59;5036924;28;20045;-74
2023/09/12 10:32:19;;;;;;;19.38;14.02;;;;;;;19.44;78.67;100882.09;5039436;28;20111;-74
2023/09/12 10:34:50;;;;;;;19.15;14.85;;;;;;;19.47;78.56;100877.50;5035456;28;20053;-75
2023/09/12 10:37:17;;;;;;;21.02;14.68;;;;;;;19.48;78.55;100887.16;5037289;28;20059;-74
2023/09/12 10:39:45;;;;;;;24.60;15.25;;;;;;;19.51;78.50;100881.69;5040103;28;20045;-75
2023/09/12 10:42:13;;;;;;;21.70;15.40;;;;;;;19.52;78.44;100880.75;5037899;28;20167;-74
2023/09/12 10:44:40;;;;;;;24.10;15.38;;;;;;;19.54;78.50;100883.31;5040942;28;20058;-74
2023/09/12 10:47:08;;;;;;;24.80;16.45;;;;;;;19.56;78.30;100881.44;5037101;28;20037;-74
2023/09/12 10:49:35;;;;;;;23.17;16.48;;;;;;;19.58;78.33;100881.34;5037601;28;20063;-74
2023/09/12 10:52:04;;;;;;;26.40;17.23;;;;;;;19.60;77.99;100879.47;5037139;28;20049;-75
2023/09/12 10:54:38;;;;;;;24.95;17.38;;;;;;;19.61;78.06;100876.75;5039480;28;20055;-75
2023/09/12 10:57:05;;;;;;;22.17;16.10;;;;;;;19.62;78.05;100869.66;5037509;28;20533;-74
2023/09/12 10:59:35;;;;;;;24.05;16.67;;;;;;;19.63;78.08;100874.00;5035463;28;20067;-74
2023/09/12 11:02:29;;;;;;;26.58;16.83;;;;;;;19.63;77.74;100876.66;5037849;28;20453;-74
2023/09/12 11:04:56;;;;;;;23.20;16.88;;;;;;;19.62;77.64;100877.59;5036717;28;20567;-74
2023/09/12 11:07:45;;;;;;;29.73;19.00;;;;;;;19.64;77.59;100892.50;5039572;28;20037;-74
2023/09/12 11:10:21;;;;;;;25.27;18.23;;;;;;;19.64;77.26;100891.63;5037223;28;20078;-74
2023/09/12 11:12:48;;;;;;;;;;;;;;;19.65;77.44;100890.69;5036546;28;20106;-75
2023/09/12 11:15:16;;;;;;;26.05;18.58;;;;;;;19.63;77.20;100880.16;5038590;28;19928;-74
2023/09/12 11:17:44;;;;;;;25.90;18.75;;;;;;;19.54;77.20;100873.56;5036419;28;20129;-75
2023/09/12 11:20:12;;;;;;;29.90;19.63;;;;;;;19.64;77.13;100876.59;5039413;28;20481;-74
2023/09/12 11:22:40;;;;;;;22.90;17.15;;;;;;;19.65;77.22;100874.78;5040815;28;20051;-74